createdAt,value
2017-08-04T00:00:23.847Z,64.4
2017-08-04T00:01:04.241Z,64.22
2017-08-04T00:01:44.699Z,64.6
2017-08-04T00:02:25.121Z,65.37
2017-08-04T00:03:05.464Z,64.82
2017-08-04T00:03:45.856Z,64.63
2017-08-04T00:04:26.279Z,64.25
2017-08-04T00:05:06.770Z,64.34
2017-08-04T00:05:47.209Z,64.53
2017-08-04T00:06:27.571Z,64.43
2017-08-04T00:07:07.942Z,64.25
2017-08-04T00:07:48.462Z,64.25
2017-08-04T00:08:28.727Z,64.53
2017-08-04T00:09:09.158Z,64.05
2017-08-04T00:09:49.546Z,64.34
2017-08-04T00:10:29.959Z,63.95
2017-08-04T00:11:10.414Z,64.05
2017-08-04T00:11:50.766Z,64.05
2017-08-04T00:12:31.282Z,64.25
2017-08-04T00:13:11.692Z,64.15
2017-08-04T00:13:52.190Z,64.05
2017-08-04T00:14:32.499Z,63.57
2017-08-04T00:15:12.946Z,64.34
2017-08-04T00:15:53.356Z,64.25
2017-08-04T00:16:33.812Z,64.15
2017-08-04T00:17:14.224Z,64.15
2017-08-04T00:17:54.601Z,64.15
2017-08-04T00:18:34.965Z,64.63
2017-08-04T00:19:15.496Z,64.82
2017-08-04T00:21:28.419Z,64.43
2017-08-04T00:22:08.720Z,64.34
2017-08-04T00:22:49.158Z,64.53
2017-08-04T00:23:29.526Z,64.53
2017-08-04T00:24:09.993Z,64.43
2017-08-04T00:24:50.473Z,64.43
2017-08-04T00:25:30.934Z,64.63
2017-08-04T00:26:11.306Z,64.63
2017-08-04T00:26:51.742Z,64.43
2017-08-04T00:27:32.192Z,64.25
2017-08-04T00:28:12.649Z,64.34
2017-08-04T00:28:53.112Z,64.34
2017-08-04T00:29:33.500Z,64.34
2017-08-04T00:30:13.916Z,64.34
2017-08-04T00:30:54.395Z,64.43
2017-08-04T00:31:34.732Z,64.25
2017-08-04T00:32:15.074Z,64.34
2017-08-04T00:32:55.525Z,64.15
2017-08-04T00:33:35.959Z,64.05
2017-08-04T00:34:16.470Z,63.86
2017-08-04T00:34:56.841Z,63.57
2017-08-04T00:35:37.208Z,63.67
2017-08-04T00:36:17.604Z,63.67
2017-08-04T00:36:58.072Z,63.95
2017-08-04T00:37:38.463Z,63.76
2017-08-04T00:38:18.838Z,63.76
2017-08-04T00:38:59.242Z,64.43
2017-08-04T00:39:39.711Z,63.67
2017-08-04T00:40:20.043Z,63.95
2017-08-04T00:41:00.457Z,63.67
2017-08-04T00:41:40.965Z,64.15
2017-08-04T00:43:38.948Z,65.27
2017-08-04T00:44:19.265Z,65.17
2017-08-04T00:44:59.763Z,65.17
2017-08-04T00:45:40.062Z,64.98
2017-08-04T00:46:20.566Z,65.17
2017-08-04T00:47:00.883Z,65.37
2017-08-04T00:47:41.273Z,65.08
2017-08-04T00:48:21.719Z,65.08
2017-08-04T00:49:02.087Z,65.27
2017-08-04T00:49:42.530Z,65.37
2017-08-04T00:50:22.983Z,65.37
2017-08-04T00:51:03.408Z,65.56
2017-08-04T00:51:43.821Z,65.84
2017-08-04T00:52:24.186Z,65.56
2017-08-04T00:53:04.543Z,65.66
2017-08-04T00:53:45.028Z,65.75
2017-08-04T00:54:25.422Z,66.23
2017-08-04T00:55:05.832Z,66.52
2017-08-04T00:55:46.259Z,66.23
2017-08-04T00:56:26.780Z,66.23
2017-08-04T00:57:07.158Z,66.33
2017-08-04T00:57:47.584Z,66.39
2017-08-04T00:58:27.955Z,66.61
2017-08-04T00:59:08.379Z,66.58
2017-08-04T00:59:48.826Z,67
2017-08-04T01:00:29.172Z,66.91
2017-08-04T01:01:09.613Z,66.58
2017-08-04T01:01:49.995Z,66.2
2017-08-04T01:02:30.473Z,66.1
2017-08-04T01:03:10.862Z,66.68
2017-08-04T01:05:14.696Z,66.77
2017-08-04T01:05:56.207Z,67.19
2017-08-04T01:06:36.671Z,67.35
2017-08-04T01:07:17.047Z,67.07
2017-08-04T01:07:57.441Z,67.54
2017-08-04T01:08:37.874Z,67.35
2017-08-04T01:09:18.249Z,67.16
2017-08-04T01:09:58.652Z,67.16
2017-08-04T01:10:39.156Z,67.07
2017-08-04T01:11:19.504Z,67.25
2017-08-04T01:11:59.858Z,67.45
2017-08-04T01:12:40.246Z,67.45
2017-08-04T01:13:20.671Z,67.45
2017-08-04T01:14:01.014Z,66.68
2017-08-04T01:14:41.459Z,67.07
2017-08-04T01:15:21.880Z,67.45
2017-08-04T01:16:02.240Z,67.45
2017-08-04T01:16:42.619Z,67.45
2017-08-04T01:17:23.061Z,67.16
2017-08-04T01:18:03.448Z,67.07
2017-08-04T01:18:43.900Z,67.25
2017-08-04T01:19:24.317Z,67.25
2017-08-04T01:20:04.706Z,67.16
2017-08-04T01:20:45.077Z,67.35
2017-08-04T01:21:25.490Z,68.21
2017-08-04T01:22:05.993Z,67.93
2017-08-04T01:22:46.398Z,67.93
2017-08-04T01:23:26.874Z,67.83
2017-08-04T01:24:07.328Z,67.74
2017-08-04T01:24:47.730Z,67.54
2017-08-04T01:25:28.132Z,67.58
2017-08-04T01:26:08.509Z,67.38
2017-08-04T01:26:48.904Z,67.58
2017-08-04T01:27:29.270Z,67.29
2017-08-04T01:28:09.700Z,67.48
2017-08-04T01:28:50.102Z,67.1
2017-08-04T01:29:30.497Z,67.48
2017-08-04T01:30:10.945Z,67.29
2017-08-04T01:30:51.310Z,67.38
2017-08-04T01:31:31.696Z,67.68
2017-08-04T01:32:12.060Z,67.68
2017-08-04T01:32:52.435Z,67.77
2017-08-04T01:33:32.893Z,67.68
2017-08-04T01:34:13.290Z,67.77
2017-08-04T01:34:53.660Z,67.64
2017-08-04T01:35:34.034Z,67.48
2017-08-04T01:36:14.467Z,68.25
2017-08-04T01:36:54.837Z,67.58
2017-08-04T01:37:35.236Z,67.58
2017-08-04T01:38:15.629Z,66.71
2017-08-04T01:38:56.065Z,66.52
2017-08-04T01:39:36.465Z,66.71
2017-08-04T01:40:16.896Z,66.61
2017-08-04T01:40:57.308Z,66.23
2017-08-04T01:41:37.664Z,66.42
2017-08-04T01:42:18.087Z,66.14
2017-08-04T01:42:58.468Z,65.84
2017-08-04T01:45:13.198Z,65.4
2017-08-04T01:45:53.647Z,66.07
2017-08-04T01:46:34.304Z,65.69
2017-08-04T01:47:14.662Z,65.78
2017-08-04T01:49:08.850Z,65.2
2017-08-04T01:49:48.358Z,65.2
2017-08-04T01:50:28.718Z,65.2
2017-08-04T01:51:09.149Z,65.3
2017-08-04T01:51:49.876Z,65.11
2017-08-04T01:52:30.978Z,65.3
2017-08-04T01:53:10.700Z,64.25
2017-08-04T01:53:51.164Z,63.76
2017-08-04T01:54:32.967Z,63.28
2017-08-04T01:55:13.540Z,62.8
2017-08-04T01:55:54.152Z,62.9
2017-08-04T01:56:34.703Z,63.02
2017-08-04T01:57:15.280Z,62.16
2017-08-04T01:59:12.945Z,62.35
2017-08-04T01:59:55.705Z,61.68
2017-08-04T02:00:36.200Z,61.68
2017-08-04T02:01:16.680Z,62.26
2017-08-04T02:01:56.989Z,61.97
2017-08-04T02:02:37.749Z,61.68
2017-08-04T02:03:19.127Z,61.68
2017-08-04T02:03:59.487Z,61.19
2017-08-04T02:04:40.016Z,61.58
2017-08-04T02:05:20.380Z,61.1
2017-08-04T02:06:00.871Z,61.58
2017-08-04T02:06:41.304Z,61.58
2017-08-04T02:07:24.788Z,61.49
2017-08-04T02:08:05.516Z,61
2017-08-04T02:10:05.554Z,60.91
2017-08-04T02:10:54.663Z,60.81
2017-08-04T02:11:35.378Z,60.91
2017-08-04T02:12:15.598Z,60.72
2017-08-04T02:12:56.236Z,61
2017-08-04T02:13:36.629Z,60.72
2017-08-04T02:14:17.270Z,60.52
2017-08-04T02:14:57.661Z,61.29
2017-08-04T02:15:38.091Z,60.81
2017-08-04T02:16:18.920Z,60.72
2017-08-04T02:16:59.539Z,61.19
2017-08-04T02:17:40.655Z,61.32
2017-08-04T02:18:21.057Z,61
2017-08-04T02:19:02.395Z,60.81
2017-08-04T02:19:42.817Z,60.75
2017-08-04T02:21:56.023Z,60.17
2017-08-04T02:24:18.169Z,60.07
2017-08-04T02:24:59.618Z,59.88
2017-08-04T02:25:39.958Z,59.88
2017-08-04T02:26:20.325Z,59.69
2017-08-04T02:27:00.786Z,60.07
2017-08-04T02:27:41.140Z,59.69
2017-08-04T02:28:21.542Z,59.49
2017-08-04T02:29:01.985Z,59.59
2017-08-04T02:29:42.366Z,59.4
2017-08-04T02:30:22.730Z,59.69
2017-08-04T02:31:03.288Z,59.69
2017-08-04T02:31:43.565Z,59.49
2017-08-04T02:32:23.985Z,59.59
2017-08-04T02:33:04.337Z,59.49
2017-08-04T02:33:44.745Z,59.59
2017-08-04T02:34:25.112Z,59.2
2017-08-04T02:35:05.592Z,59.2
2017-08-04T02:35:46.024Z,59.49
2017-08-04T02:36:26.378Z,59.59
2017-08-04T02:37:06.819Z,60.17
2017-08-04T02:37:47.225Z,59.49
2017-08-04T02:38:27.654Z,59.97
2017-08-04T02:39:08.115Z,59.88
2017-08-04T02:39:48.517Z,60.55
2017-08-04T02:40:28.900Z,60.52
2017-08-04T02:41:09.306Z,60.62
2017-08-04T02:41:49.704Z,60.81
2017-08-04T02:42:30.129Z,61.1
2017-08-04T02:43:10.601Z,61.1
2017-08-04T02:43:51.005Z,61.49
2017-08-04T02:44:31.379Z,60.81
2017-08-04T02:45:11.789Z,61.39
2017-08-04T02:45:52.188Z,61.77
2017-08-04T02:46:32.691Z,61.77
2017-08-04T02:47:13.086Z,61.97
2017-08-04T02:47:53.531Z,62.26
2017-08-04T02:48:33.906Z,62.45
2017-08-04T02:49:14.299Z,62.26
2017-08-04T02:49:54.756Z,62.54
2017-08-04T02:50:35.112Z,62.54
2017-08-04T02:51:15.476Z,62.45
2017-08-04T02:51:55.908Z,62.64
2017-08-04T02:52:36.318Z,62.64
2017-08-04T02:53:16.717Z,62.93
2017-08-04T02:53:57.178Z,63.02
2017-08-04T02:54:37.599Z,62.74
2017-08-04T02:55:17.960Z,62.83
2017-08-04T02:55:58.353Z,63.02
2017-08-04T02:57:53.488Z,62.83
2017-08-04T02:58:33.800Z,63.57
2017-08-04T02:59:14.270Z,63.31
2017-08-04T02:59:54.724Z,63.12
2017-08-04T03:01:55.789Z,62.83
2017-08-04T03:02:49.877Z,62.99
2017-08-04T03:03:44.546Z,62.9
2017-08-04T03:04:40.404Z,63.09
2017-08-04T03:05:39.014Z,63.48
2017-08-04T03:06:34.529Z,63.67
2017-08-04T03:07:29.808Z,63.57
2017-08-04T03:08:24.139Z,62.99
2017-08-04T03:09:18.535Z,63.09
2017-08-04T03:10:12.210Z,63.18
2017-08-04T03:11:08.618Z,63.67
2017-08-04T03:12:01.861Z,63.95
2017-08-04T03:12:58.150Z,64.05
2017-08-04T03:13:54.188Z,63.76
2017-08-04T03:14:49.184Z,63.67
2017-08-04T03:15:41.845Z,64.25
2017-08-04T03:16:34.743Z,64.34
2017-08-04T03:17:30.162Z,64.43
2017-08-04T03:18:25.596Z,64.34
2017-08-04T03:19:21.036Z,65.5
2017-08-04T03:20:14.076Z,65.3
2017-08-04T03:21:08.643Z,65.3
2017-08-04T03:22:03.564Z,64.6
2017-08-04T03:22:55.750Z,64.6
2017-08-04T03:23:48.555Z,64.79
2017-08-04T03:24:43.283Z,64.43
2017-08-04T03:25:37.710Z,64.69
2017-08-04T03:26:33.001Z,64.31
2017-08-04T03:27:25.954Z,64.31
2017-08-04T03:28:23.071Z,64.22
2017-08-04T03:29:19.271Z,64.6
2017-08-04T03:30:16.382Z,64.79
2017-08-04T03:31:11.969Z,64.98
2017-08-04T03:32:05.238Z,64.79
2017-08-04T03:33:02.700Z,64.31
2017-08-04T03:33:57.934Z,64.92
2017-08-04T03:34:52.307Z,64.43
2017-08-04T03:35:45.663Z,63.95
2017-08-04T03:36:40.632Z,63.86
2017-08-04T03:37:38.208Z,63.86
2017-08-04T03:38:33.683Z,63.86
2017-08-04T03:39:27.153Z,64.15
2017-08-04T03:40:20.502Z,63.76
2017-08-04T03:41:16.468Z,64.15
2017-08-04T03:42:09.879Z,63.76
2017-08-04T03:43:07.658Z,63.67
2017-08-04T03:44:00.381Z,63.38
2017-08-04T03:46:31.335Z,64.05
2017-08-04T03:47:11.850Z,63.38
2017-08-04T03:47:52.286Z,63.48
2017-08-04T03:48:32.744Z,63.48
2017-08-04T03:49:13.198Z,63.67
2017-08-04T03:49:53.648Z,64.25
2017-08-04T03:50:33.970Z,63.67
2017-08-04T03:51:14.424Z,63.76
2017-08-04T03:51:54.725Z,63.86
2017-08-04T03:52:35.132Z,63.67
2017-08-04T03:53:15.598Z,63.48
2017-08-04T03:53:56.021Z,63.28
2017-08-04T03:54:36.409Z,63.67
2017-08-04T03:55:16.958Z,63.28
2017-08-04T03:55:57.552Z,63.67
2017-08-04T03:56:37.814Z,63.18
2017-08-04T03:57:18.207Z,62.99
2017-08-04T03:57:58.661Z,63.67
2017-08-04T03:58:38.971Z,63.48
2017-08-04T03:59:19.421Z,63.86
2017-08-04T03:59:59.950Z,63.28
2017-08-04T04:00:40.308Z,63.67
2017-08-04T04:01:20.634Z,63.67
2017-08-04T04:02:01.105Z,63.76
2017-08-04T04:02:41.545Z,63.76
2017-08-04T04:03:22.204Z,63.95
2017-08-04T04:08:47.085Z,63.67
2017-08-04T04:09:28.544Z,63.76
2017-08-04T04:10:08.946Z,64.05
2017-08-04T04:10:49.334Z,64.15
2017-08-04T04:11:29.716Z,63.86
2017-08-04T04:12:10.134Z,64.43
2017-08-04T04:12:50.574Z,64.05
2017-08-04T04:13:30.960Z,63.86
2017-08-04T04:14:11.300Z,63.48
2017-08-04T04:14:51.732Z,63.67
2017-08-04T04:15:32.228Z,63.67
2017-08-04T04:16:12.605Z,63.86
2017-08-04T04:16:52.953Z,64.05
2017-08-04T04:17:33.363Z,64.15
2017-08-04T04:18:13.801Z,63.76
2017-08-04T04:18:54.261Z,63.76
2017-08-04T04:19:34.645Z,64.15
2017-08-04T04:20:15.008Z,64.34
2017-08-04T04:20:55.468Z,64.25
2017-08-04T04:21:35.849Z,64.63
2017-08-04T04:22:16.435Z,64.43
2017-08-04T04:22:56.836Z,65.2
2017-08-04T04:23:37.194Z,65.2
2017-08-04T04:24:17.694Z,64.53
2017-08-04T04:24:58.068Z,64.43
2017-08-04T04:25:38.430Z,65.01
2017-08-04T04:26:18.858Z,65.2
2017-08-04T04:26:59.228Z,64.63
2017-08-04T04:27:39.668Z,64.25
2017-08-04T04:28:20.499Z,64.53
2017-08-04T04:29:00.551Z,64.34
2017-08-04T04:29:40.960Z,64.92
2017-08-04T04:30:21.308Z,64.34
2017-08-04T04:31:01.763Z,64.53
2017-08-04T04:31:42.127Z,64.34
2017-08-04T04:32:22.599Z,64.43
2017-08-04T04:33:03.021Z,64.25
2017-08-04T04:33:43.457Z,64.43
2017-08-04T04:34:23.894Z,64.43
2017-08-04T04:35:04.241Z,64.08
2017-08-04T04:35:44.664Z,63.86
2017-08-04T04:36:25.105Z,63.7
2017-08-04T04:37:05.521Z,63.89
2017-08-04T04:37:45.841Z,63.79
2017-08-04T04:38:26.389Z,63.48
2017-08-04T04:39:06.811Z,63.41
2017-08-04T04:39:47.254Z,63.6
2017-08-04T04:40:27.668Z,63.7
2017-08-04T04:41:08.121Z,63.6
2017-08-04T04:41:48.501Z,64.08
2017-08-04T04:42:28.894Z,63.7
2017-08-04T04:43:09.290Z,63.22
2017-08-04T04:43:49.748Z,63.41
2017-08-04T04:44:30.230Z,63.12
2017-08-04T04:45:10.588Z,63.31
2017-08-04T04:45:51.018Z,63.12
2017-08-04T04:46:31.404Z,63.41
2017-08-04T04:47:11.846Z,63.31
2017-08-04T04:47:52.273Z,63.51
2017-08-04T04:48:32.653Z,62.93
2017-08-04T04:49:13.047Z,63.51
2017-08-04T04:49:53.527Z,63.12
2017-08-04T04:50:33.867Z,63.51
2017-08-04T04:51:14.363Z,63.51
2017-08-04T04:51:54.747Z,63.12
2017-08-04T04:52:35.318Z,63.31
2017-08-04T04:53:15.762Z,63.12
2017-08-04T04:53:56.116Z,62.64
2017-08-04T04:54:36.468Z,63.31
2017-08-04T04:55:16.959Z,63.02
2017-08-04T04:55:57.516Z,63.02
2017-08-04T04:56:38.185Z,63.22
2017-08-04T04:57:18.628Z,63.12
2017-08-04T04:57:59.071Z,63.12
2017-08-04T04:58:39.464Z,63.02
2017-08-04T04:59:19.888Z,63.12
2017-08-04T05:00:00.270Z,63.22
2017-08-04T05:00:40.875Z,63.02
2017-08-04T05:01:21.313Z,62.93
2017-08-04T05:02:01.608Z,62.96
2017-08-04T05:02:42.232Z,63.02
2017-08-04T05:03:22.641Z,63.31
2017-08-04T05:04:03.505Z,63.22
2017-08-04T05:04:43.736Z,62.74
2017-08-04T05:05:24.161Z,62.83
2017-08-04T05:06:04.587Z,62.83
2017-08-04T05:06:45.089Z,62.83
2017-08-04T05:07:25.480Z,62.64
2017-08-04T05:08:05.943Z,62.64
2017-08-04T05:08:46.355Z,62.74
2017-08-04T05:09:26.794Z,63.22
2017-08-04T05:10:07.186Z,63.12
2017-08-04T05:10:47.585Z,63.12
2017-08-04T05:11:28.081Z,62.64
2017-08-04T05:12:08.532Z,62.93
2017-08-04T05:12:48.934Z,62.83
2017-08-04T05:13:29.426Z,63.51
2017-08-04T05:14:09.839Z,63.12
2017-08-04T05:14:50.242Z,63.31
2017-08-04T05:15:30.708Z,63.41
2017-08-04T05:16:11.296Z,63.31
2017-08-04T05:16:51.972Z,63.22
2017-08-04T05:17:32.366Z,63.12
2017-08-04T05:18:12.715Z,63.34
2017-08-04T05:18:53.074Z,63.06
2017-08-04T05:19:33.549Z,62.67
2017-08-04T05:20:14.090Z,62.96
2017-08-04T05:20:54.549Z,62.87
2017-08-04T05:21:35.273Z,62.96
2017-08-04T05:22:15.522Z,61.9
2017-08-04T05:22:55.912Z,61.61
2017-08-04T05:23:36.311Z,61.8
2017-08-04T05:24:16.731Z,62.09
2017-08-04T05:24:57.069Z,62.09
2017-08-04T05:25:37.930Z,62.48
2017-08-04T05:26:18.265Z,62.67
2017-08-04T05:26:58.800Z,62.38
2017-08-04T05:27:39.147Z,62.77
2017-08-04T05:28:19.578Z,62.67
2017-08-04T05:29:00.058Z,61.42
2017-08-04T05:29:40.516Z,62.77
2017-08-04T05:30:20.889Z,62.38
2017-08-04T05:31:01.308Z,62.41
2017-08-04T05:31:41.694Z,61.65
2017-08-04T05:32:22.074Z,62.03
2017-08-04T05:33:02.557Z,61.22
2017-08-04T05:33:42.955Z,61.25
2017-08-04T05:34:23.353Z,60.77
2017-08-04T05:35:03.766Z,60.39
2017-08-04T05:35:44.209Z,60.77
2017-08-04T05:36:24.647Z,60.97
2017-08-04T05:37:05.092Z,60.77
2017-08-04T05:37:46.300Z,60.77
2017-08-04T05:38:26.625Z,61.25
2017-08-04T05:39:07.141Z,60.68
2017-08-04T05:39:48.129Z,61.16
2017-08-04T05:40:28.554Z,60.97
2017-08-04T05:41:08.983Z,60.3
2017-08-04T05:41:49.965Z,60.58
2017-08-04T05:42:30.384Z,60.58
2017-08-04T05:43:10.920Z,60.77
2017-08-04T05:43:51.267Z,60.49
2017-08-04T05:44:31.965Z,60.39
2017-08-04T05:45:12.836Z,60.68
2017-08-04T05:45:53.081Z,60.1
2017-08-04T05:46:33.769Z,60
2017-08-04T05:47:13.968Z,59.91
2017-08-04T05:47:54.377Z,60.1
2017-08-04T05:48:34.978Z,60.2
2017-08-04T05:49:15.263Z,60
2017-08-04T05:49:55.695Z,60.13
2017-08-04T05:50:36.150Z,58.95
2017-08-04T05:51:16.565Z,59.81
2017-08-04T05:51:56.928Z,59.81
2017-08-04T05:52:37.414Z,60
2017-08-04T05:53:17.783Z,60.77
2017-08-04T05:53:58.156Z,60
2017-08-04T05:54:38.593Z,60.3
2017-08-04T05:55:18.959Z,59.72
2017-08-04T05:55:59.453Z,60.39
2017-08-04T05:56:40.001Z,60.39
2017-08-04T05:57:20.310Z,61.07
2017-08-04T05:58:00.764Z,60.68
2017-08-04T05:58:41.204Z,60.68
2017-08-04T05:59:21.656Z,59.91
2017-08-04T06:00:02.076Z,60
2017-08-04T06:00:42.501Z,60.49
2017-08-04T06:01:22.990Z,59.81
2017-08-04T06:02:03.356Z,60.1
2017-08-04T06:02:43.764Z,59.52
2017-08-04T06:03:24.558Z,59.91
2017-08-04T06:04:04.930Z,60
2017-08-04T06:04:45.479Z,59.07
2017-08-04T06:05:25.918Z,59.17
2017-08-04T06:06:06.319Z,59.36
2017-08-04T06:06:46.826Z,58.88
2017-08-04T06:07:27.379Z,58.97
2017-08-04T06:08:07.835Z,58.01
2017-08-04T06:08:48.260Z,57.92
2017-08-04T06:09:28.630Z,58.01
2017-08-04T06:10:09.904Z,58.69
2017-08-04T06:10:50.439Z,58.01
2017-08-04T06:11:30.836Z,58.11
2017-08-04T06:12:11.338Z,58.01
2017-08-04T06:12:51.693Z,58.01
2017-08-04T06:13:32.162Z,58.2
2017-08-04T06:14:12.621Z,58.95
2017-08-04T06:14:53.086Z,58.88
2017-08-04T06:15:33.828Z,58.88
2017-08-04T06:17:35.278Z,58.27
2017-08-04T06:18:15.973Z,58.4
2017-08-04T06:18:56.712Z,58.75
2017-08-04T06:19:37.502Z,58.08
2017-08-04T06:20:18.258Z,58.95
2017-08-04T06:20:59.061Z,59.04
2017-08-04T06:21:39.974Z,58.95
2017-08-04T06:22:20.528Z,58.95
2017-08-04T06:23:01.828Z,59.04
2017-08-04T06:23:42.005Z,59.33
2017-08-04T06:24:22.588Z,59.04
2017-08-04T06:25:04.210Z,58.85
2017-08-04T06:25:44.803Z,59.52
2017-08-04T06:26:25.314Z,58.56
2017-08-04T06:27:05.869Z,58.85
2017-08-04T06:27:46.431Z,59.14
2017-08-04T06:28:27.118Z,58.49
2017-08-04T06:29:07.622Z,58.11
2017-08-04T06:29:48.148Z,58.3
2017-08-04T06:30:28.702Z,58.11
2017-08-04T06:31:09.345Z,58.59
2017-08-04T06:31:49.857Z,58.11
2017-08-04T06:32:30.475Z,58.3
2017-08-04T06:33:11.013Z,58.49
2017-08-04T06:33:51.537Z,59.17
2017-08-04T06:34:31.909Z,58.49
2017-08-04T06:35:12.513Z,58.01
2017-08-04T06:35:52.905Z,58.11
2017-08-04T06:36:33.577Z,57.43
2017-08-04T06:37:14.248Z,58.01
2017-08-04T06:37:54.696Z,57.37
2017-08-04T06:38:35.242Z,57.37
2017-08-04T06:39:15.985Z,57.46
2017-08-04T06:39:56.484Z,57.46
2017-08-04T06:40:37.108Z,57.27
2017-08-04T06:41:18.282Z,57.65
2017-08-04T06:41:58.854Z,57.37
2017-08-04T06:42:39.453Z,57.94
2017-08-04T06:43:20.007Z,57.46
2017-08-04T06:44:01.083Z,57.46
2017-08-04T06:44:41.626Z,57.37
2017-08-04T06:45:22.243Z,56.98
2017-08-04T06:46:02.738Z,57.07
2017-08-04T06:46:43.292Z,57.46
2017-08-04T06:47:24.449Z,57.07
2017-08-04T06:48:05.156Z,57.37
2017-08-04T06:48:45.763Z,56.88
2017-08-04T06:49:26.354Z,57.07
2017-08-04T06:50:06.878Z,57.27
2017-08-04T06:50:47.483Z,57.17
2017-08-04T06:51:27.945Z,57.37
2017-08-04T06:52:08.462Z,56.88
2017-08-04T06:52:49.010Z,56.59
2017-08-04T06:53:29.516Z,57.07
2017-08-04T06:54:10.156Z,56.98
2017-08-04T06:54:50.762Z,56.49
2017-08-04T06:55:31.299Z,56.98
2017-08-04T06:56:11.817Z,56.69
2017-08-04T06:56:52.566Z,56.98
2017-08-04T06:57:33.279Z,57.27
2017-08-04T06:58:13.857Z,57.07
2017-08-04T06:58:54.354Z,56.59
2017-08-04T06:59:34.997Z,57.17
2017-08-04T07:00:15.872Z,56.79
2017-08-04T07:00:56.404Z,55.85
2017-08-04T07:01:37.053Z,55.94
2017-08-04T07:02:17.678Z,55.46
2017-08-04T07:02:58.198Z,55.27
2017-08-04T07:03:38.759Z,55.49
2017-08-04T07:04:19.332Z,54.62
2017-08-04T07:04:59.852Z,54.43
2017-08-04T07:05:40.454Z,54.62
2017-08-04T07:06:21.067Z,53.59
2017-08-04T07:07:01.535Z,52.94
2017-08-04T07:07:42.038Z,51.68
2017-08-04T07:08:22.525Z,50.93
2017-08-04T07:09:03.187Z,50.35
2017-08-04T07:09:43.829Z,50.93
2017-08-04T07:10:24.557Z,50.26
2017-08-04T07:11:05.127Z,50.45
2017-08-04T07:11:45.634Z,50.18
2017-08-04T07:12:26.226Z,50.48
2017-08-04T07:13:06.919Z,49.6
2017-08-04T07:13:47.477Z,49.51
2017-08-04T07:14:28.134Z,50.09
2017-08-04T07:15:08.628Z,50.09
2017-08-04T07:15:49.170Z,49.8
2017-08-04T07:16:29.885Z,50.09
2017-08-04T07:17:10.409Z,49.7
2017-08-04T07:17:50.862Z,49.7
2017-08-04T07:18:31.421Z,49.41
2017-08-04T07:19:12.036Z,49.32
2017-08-04T07:19:53.466Z,49.8
2017-08-04T07:20:33.964Z,49.02
2017-08-04T07:21:14.572Z,49.22
2017-08-04T07:21:55.081Z,49.32
2017-08-04T07:22:35.698Z,48.74
2017-08-04T07:23:16.339Z,48.74
2017-08-04T07:23:56.868Z,48.83
2017-08-04T07:24:37.430Z,49.22
2017-08-04T07:25:17.990Z,49.41
2017-08-04T07:25:58.870Z,49.39
2017-08-04T07:26:39.255Z,49.68
2017-08-04T07:27:19.655Z,50.16
2017-08-04T07:28:00.392Z,49.58
2017-08-04T07:28:41.966Z,49.77
2017-08-04T07:29:22.402Z,50.26
2017-08-04T07:30:03.932Z,50.33
2017-08-04T07:30:44.289Z,50.81
2017-08-04T07:31:25.471Z,50.98
2017-08-04T07:32:06.026Z,51.39
2017-08-04T07:32:46.646Z,51.46
2017-08-04T07:33:27.126Z,51.78
2017-08-04T07:34:07.801Z,51.59
2017-08-04T07:34:48.307Z,52.07
2017-08-04T07:35:28.853Z,51.1
2017-08-04T07:36:09.436Z,51.39
2017-08-04T07:36:50.248Z,49.85
2017-08-04T07:37:30.895Z,49.65
2017-08-04T07:38:11.370Z,50.23
2017-08-04T07:38:51.863Z,50.71
2017-08-04T07:39:32.522Z,51.2
2017-08-04T07:40:12.925Z,50.81
2017-08-04T07:40:53.465Z,51.01
2017-08-04T07:41:34.012Z,51.97
2017-08-04T07:42:14.526Z,50.91
2017-08-04T07:42:55.093Z,50.81
2017-08-04T07:43:36.070Z,50.45
2017-08-04T07:44:16.586Z,49.29
2017-08-04T07:44:57.543Z,49.29
2017-08-04T07:45:38.090Z,49.12
2017-08-04T07:46:18.609Z,48.74
2017-08-04T07:46:59.172Z,48.16
2017-08-04T07:47:39.698Z,47.31
2017-08-04T07:48:20.162Z,46.94
2017-08-04T07:49:00.861Z,46.75
2017-08-04T07:49:41.381Z,46.17
2017-08-04T07:50:21.869Z,45.9
2017-08-04T07:51:02.675Z,45.51
2017-08-04T07:51:43.568Z,44.54
2017-08-04T07:52:24.036Z,43.96
2017-08-04T07:53:04.541Z,43.7
2017-08-04T07:53:45.034Z,43.52
2017-08-04T07:54:25.584Z,42.46
2017-08-04T07:55:06.303Z,42.55
2017-08-04T07:55:46.696Z,42.94
2017-08-04T07:56:28.148Z,42.36
2017-08-04T07:57:08.811Z,42.65
2017-08-04T07:57:49.296Z,42.17
2017-08-04T07:58:30.041Z,42.92
2017-08-04T07:59:10.353Z,42.82
2017-08-04T07:59:51.829Z,43.02
2017-08-04T08:00:33.042Z,42.72
2017-08-04T08:01:13.841Z,41.95
2017-08-04T08:01:54.152Z,43.02
2017-08-04T08:02:34.684Z,43.31
2017-08-04T08:03:15.433Z,43.21
2017-08-04T08:03:55.922Z,43.41
2017-08-04T08:04:36.521Z,42.75
2017-08-04T08:05:17.021Z,42.26
2017-08-04T08:05:57.668Z,41.31
2017-08-04T08:06:38.130Z,41.51
2017-08-04T08:07:18.668Z,41.61
2017-08-04T08:07:59.414Z,40.46
2017-08-04T08:08:40.042Z,40.66
2017-08-04T08:09:20.520Z,40.56
2017-08-04T08:10:01.071Z,40.44
2017-08-04T08:10:41.612Z,40.81
2017-08-04T08:11:22.170Z,41.88
2017-08-04T08:12:02.676Z,41.78
2017-08-04T08:12:43.575Z,41.3
2017-08-04T08:13:24.041Z,41.78
2017-08-04T08:14:05.380Z,41.49
2017-08-04T08:14:46.428Z,41.68
2017-08-04T08:15:26.507Z,41.78
2017-08-04T08:16:07.141Z,41.51
2017-08-04T08:16:47.748Z,40.26
2017-08-04T08:17:28.377Z,39.88
2017-08-04T08:18:09.085Z,39.61
2017-08-04T08:18:49.473Z,39.59
2017-08-04T08:19:30.085Z,39.98
2017-08-04T08:20:10.635Z,39.12
2017-08-04T08:20:51.190Z,39.78
2017-08-04T08:21:32.361Z,39.2
2017-08-04T08:22:12.831Z,39.88
2017-08-04T08:22:53.801Z,40.34
2017-08-04T08:23:34.937Z,40.15
2017-08-04T08:24:15.622Z,40.15
2017-08-04T08:24:56.201Z,39.95
2017-08-04T08:25:36.944Z,40.73
2017-08-04T08:26:17.518Z,40.91
2017-08-04T08:26:58.182Z,41.3
2017-08-04T08:27:38.872Z,41.68
2017-08-04T08:28:19.937Z,41.78
2017-08-04T08:29:00.989Z,41.49
2017-08-04T08:29:41.714Z,41.66
2017-08-04T08:30:22.269Z,42.05
2017-08-04T08:31:02.737Z,41.95
2017-08-04T08:31:43.838Z,41.86
2017-08-04T08:32:24.101Z,41.76
2017-08-04T08:33:05.510Z,41.66
2017-08-04T08:33:46.176Z,42.05
2017-08-04T08:34:26.686Z,41.76
2017-08-04T08:35:07.164Z,42.05
2017-08-04T08:35:48.437Z,41.66
2017-08-04T08:36:28.484Z,41.39
2017-08-04T08:37:09.286Z,41.39
2017-08-04T08:37:49.726Z,40.61
2017-08-04T08:38:30.544Z,40.52
2017-08-04T08:39:11.080Z,40.4
2017-08-04T08:39:51.847Z,41.1
2017-08-04T08:40:32.329Z,40.52
2017-08-04T08:41:12.965Z,40.61
2017-08-04T08:41:53.426Z,40.73
2017-08-04T08:42:35.228Z,39.67
2017-08-04T08:43:16.043Z,39.95
2017-08-04T08:43:56.348Z,39.67
2017-08-04T08:44:36.866Z,39.01
2017-08-04T08:45:17.591Z,38.23
2017-08-04T08:45:58.228Z,37.74
2017-08-04T08:46:38.790Z,37.94
2017-08-04T08:47:19.244Z,38.71
2017-08-04T08:47:59.776Z,38.71
2017-08-04T08:48:40.204Z,37.41
2017-08-04T08:49:20.717Z,35.5
2017-08-04T08:50:01.321Z,34.33
2017-08-04T08:50:41.881Z,34.45
2017-08-04T08:51:22.352Z,33.95
2017-08-04T08:52:03.298Z,34.06
2017-08-04T08:52:43.896Z,34.33
2017-08-04T08:53:24.539Z,34.05
2017-08-04T08:54:05.062Z,34.43
2017-08-04T08:54:45.547Z,35.49
2017-08-04T08:55:26.095Z,34.82
2017-08-04T08:56:06.791Z,34.63
2017-08-04T08:56:47.366Z,34.24
2017-08-04T08:57:27.957Z,33.95
2017-08-04T08:58:08.719Z,34.24
2017-08-04T08:58:49.814Z,34.33
2017-08-04T08:59:30.393Z,35.49
2017-08-04T09:00:10.900Z,34.8
2017-08-04T09:00:51.638Z,35.29
2017-08-04T09:01:32.199Z,34.9
2017-08-04T09:02:12.787Z,35.68
2017-08-04T09:02:53.350Z,35.49
2017-08-04T09:03:33.900Z,34.33
2017-08-04T09:04:14.577Z,34.45
2017-08-04T09:04:55.274Z,33.01
2017-08-04T09:05:36.096Z,31.76
2017-08-04T09:06:16.750Z,30.8
2017-08-04T09:06:57.253Z,29.74
2017-08-04T09:07:37.866Z,29.07
2017-08-04T09:08:18.496Z,29.75
2017-08-04T09:08:59.273Z,29.46
2017-08-04T09:09:39.607Z,29.56
2017-08-04T09:10:20.961Z,29.17
2017-08-04T09:11:01.719Z,29.46
2017-08-04T09:11:42.241Z,29.63
2017-08-04T09:12:22.995Z,30.21
2017-08-04T09:13:03.589Z,30.98
2017-08-04T09:13:44.411Z,31.16
2017-08-04T09:14:25.003Z,31.64
2017-08-04T09:15:05.504Z,31.64
2017-08-04T09:15:46.175Z,31.54
2017-08-04T09:16:27.312Z,31.84
2017-08-04T09:17:07.980Z,31.54
2017-08-04T09:17:48.423Z,31.53
2017-08-04T09:18:29.081Z,31.64